createdAt,value
2022-12-11T00:01:12.845Z,97504.35
2022-12-11T00:03:39.815Z,97498.13
2022-12-11T00:06:08.313Z,97509.73
2022-12-11T00:08:35.423Z,97510.52
2022-12-11T00:11:02.466Z,97495.98
2022-12-11T00:13:29.433Z,97500.24
2022-12-11T00:15:58.883Z,97499.11
2022-12-11T00:18:25.877Z,97512.13
2022-12-11T00:20:52.706Z,97517.66
2022-12-11T00:23:19.527Z,97520.94
2022-12-11T00:25:47.619Z,97510.48
2022-12-11T00:28:16.084Z,97495.65
2022-12-11T00:30:43.364Z,97496.19
2022-12-11T00:33:10.808Z,97489.83
2022-12-11T00:35:42.152Z,97483.09
2022-12-11T00:38:09.334Z,97471.14
2022-12-11T00:40:37.066Z,97461.94
2022-12-11T00:43:04.317Z,97447.86
2022-12-11T00:45:31.307Z,97436.89
2022-12-11T00:47:58.317Z,97422.84
2022-12-11T00:50:25.256Z,97413.90
2022-12-11T00:52:52.202Z,97419.10
2022-12-11T00:55:19.169Z,97432.04
2022-12-11T00:57:46.086Z,97434.02
2022-12-11T01:00:14.020Z,97433.70
2022-12-11T01:02:40.996Z,97424.42
2022-12-11T01:05:10.180Z,97416.18
2022-12-11T01:07:37.284Z,97420.52
2022-12-11T01:10:23.444Z,97415.98
2022-12-11T01:13:10.684Z,97407.96
2022-12-11T01:15:42.663Z,97402.16
2022-12-11T01:18:10.903Z,97394.94
2022-12-11T01:20:39.238Z,97388.77
2022-12-11T01:23:06.753Z,97377.58
2022-12-11T01:25:33.681Z,97373.98
2022-12-11T01:28:00.586Z,97379.53
2022-12-11T01:30:27.514Z,97380.04
2022-12-11T01:32:54.583Z,97379.05
2022-12-11T01:35:21.574Z,97368.21
2022-12-11T01:37:48.800Z,97357.52
2022-12-11T01:40:18.785Z,97360.29
2022-12-11T01:42:45.691Z,97355.99
2022-12-11T01:45:23.080Z,97348.94
2022-12-11T01:48:19.040Z,97340.80
2022-12-11T01:51:06.316Z,97331.83
2022-12-11T01:53:41.890Z,97332.35
2022-12-11T01:56:08.746Z,97330.45
2022-12-11T01:58:41.213Z,97330.35
2022-12-11T02:01:08.181Z,97330.97
2022-12-11T02:03:35.368Z,97324.27
2022-12-11T02:06:02.677Z,97328.23
2022-12-11T02:08:29.711Z,97321.17
2022-12-11T02:11:05.879Z,97316.02
2022-12-11T02:13:49.380Z,97314.62
2022-12-11T02:16:55.113Z,97315.77
2022-12-11T02:19:32.030Z,97319.94
2022-12-11T02:21:58.880Z,97316.69
2022-12-11T02:24:28.953Z,97312.70
2022-12-11T02:27:27.803Z,97298.06
2022-12-11T02:30:07.257Z,97284.07
2022-12-11T02:32:38.148Z,97281.98
2022-12-11T02:35:22.834Z,97283.85
2022-12-11T02:37:52.832Z,97269.45
2022-12-11T02:40:22.102Z,97262.48
2022-12-11T02:42:49.092Z,97266.94
2022-12-11T02:45:16.095Z,97262.67
2022-12-11T02:47:43.924Z,97267.15
2022-12-11T02:50:12.708Z,97266.19
2022-12-11T02:52:39.789Z,97264.98
2022-12-11T02:55:52.500Z,97256.75
2022-12-11T02:58:24.469Z,97252.47
2022-12-11T03:00:51.415Z,97251.30
2022-12-11T03:03:18.246Z,97246.59
2022-12-11T03:05:46.366Z,97238.44
2022-12-11T03:08:18.768Z,97227.17
2022-12-11T03:10:46.004Z,97215.48
2022-12-11T03:13:14.267Z,97217.30
2022-12-11T03:15:42.195Z,97221.45
2022-12-11T03:18:28.374Z,97219.38
2022-12-11T03:21:09.498Z,97210.94
2022-12-11T03:23:51.698Z,97193.09
2022-12-11T03:26:19.230Z,97188.31
2022-12-11T03:29:00.906Z,97193.67
2022-12-11T03:31:36.057Z,97201.54
2022-12-11T03:34:04.547Z,97199.77
2022-12-11T03:36:33.632Z,97188.95
2022-12-11T03:39:12.660Z,97182.61
2022-12-11T03:41:39.842Z,97168.80
2022-12-11T03:44:07.060Z,97154.36
2022-12-11T03:46:37.053Z,97137.13
2022-12-11T03:49:16.932Z,97130.34
2022-12-11T03:51:44.962Z,97133.86
2022-12-11T03:54:11.941Z,97127.77
2022-12-11T03:56:38.883Z,97126.65
2022-12-11T03:59:05.829Z,97128.67
2022-12-11T04:01:32.833Z,97126.05
2022-12-11T04:03:59.781Z,97117.03
2022-12-11T04:06:26.655Z,97120.05
2022-12-11T04:08:53.451Z,97127.60
2022-12-11T04:11:35.856Z,97122.17
2022-12-11T04:14:27.231Z,97122.41
2022-12-11T04:16:54.613Z,97119.34
2022-12-11T04:19:40.373Z,97125.70
2022-12-11T04:22:26.244Z,97124.35
2022-12-11T04:24:53.227Z,97121.89
2022-12-11T04:27:39.063Z,97109.66
2022-12-11T04:30:07.580Z,97110.95
2022-12-11T04:32:34.403Z,97103.91
2022-12-11T04:35:01.379Z,97094.73
2022-12-11T04:37:28.409Z,97092.88
2022-12-11T04:39:55.383Z,97089.88
2022-12-11T04:42:22.298Z,97085.04
2022-12-11T04:44:49.289Z,97077.34
2022-12-11T04:47:16.113Z,97071.11
2022-12-11T04:49:43.243Z,97064.08
2022-12-11T04:52:10.117Z,97049.16
2022-12-11T04:54:36.931Z,97044.25
2022-12-11T04:57:03.813Z,97046.70
2022-12-11T04:59:34.803Z,97046.36
2022-12-11T05:02:01.805Z,97037.77
2022-12-11T05:04:33.356Z,97031.07
2022-12-11T05:07:00.672Z,97034.54
2022-12-11T05:09:27.803Z,97041.90
2022-12-11T05:11:54.758Z,97032.33
2022-12-11T05:14:21.798Z,97034.06
2022-12-11T05:16:48.849Z,97034.31
2022-12-11T05:19:15.888Z,97028.20
2022-12-11T05:21:42.935Z,97024.27
2022-12-11T05:24:09.798Z,97014.94
2022-12-11T05:26:36.828Z,97001.11
2022-12-11T05:29:03.779Z,96996.02
2022-12-11T05:31:30.786Z,96995.89
2022-12-11T05:33:57.823Z,96994.61
2022-12-11T05:36:29.422Z,96988.65
2022-12-11T05:38:57.787Z,96988.95
2022-12-11T05:41:25.763Z,96992.05
2022-12-11T05:43:52.912Z,96991.41
2022-12-11T05:46:28.189Z,96983.02
2022-12-11T05:48:56.875Z,96971.40
2022-12-11T05:51:23.836Z,96967.45
2022-12-11T05:53:52.159Z,96971.23
2022-12-11T05:56:24.591Z,96972.12
2022-12-11T05:58:51.580Z,96974.04
2022-12-11T06:01:21.010Z,96979.61
2022-12-11T06:03:47.965Z,96970.83
2022-12-11T06:06:15.486Z,96971.23
2022-12-11T06:08:42.468Z,96961.00
2022-12-11T06:11:09.497Z,96956.88
2022-12-11T06:13:37.237Z,96946.37
2022-12-11T06:16:05.774Z,96940.99
2022-12-11T06:18:36.555Z,96938.88
2022-12-11T06:21:20.703Z,96932.99
2022-12-11T06:23:48.556Z,96935.80
2022-12-11T06:26:15.538Z,96936.23
2022-12-11T06:28:42.779Z,96934.73
2022-12-11T06:31:09.760Z,96934.08
2022-12-11T06:33:36.765Z,96927.35
2022-12-11T06:36:09.092Z,96926.35
2022-12-11T06:38:36.184Z,96924.67
2022-12-11T06:41:05.097Z,96909.81
2022-12-11T06:43:32.673Z,96904.50
2022-12-11T06:46:03.852Z,96908.17
2022-12-11T06:48:31.329Z,96898.69
2022-12-11T06:50:58.275Z,96887.07
2022-12-11T06:53:25.226Z,96885.64
2022-12-11T06:55:52.263Z,96885.17
2022-12-11T06:58:19.077Z,96871.02
2022-12-11T07:00:46.110Z,96867.72
2022-12-11T07:03:13.880Z,96869.52
2022-12-11T07:05:40.865Z,96863.71
2022-12-11T07:08:07.829Z,96861.80
2022-12-11T07:10:34.756Z,96855.41
2022-12-11T07:13:01.803Z,96852.86
2022-12-11T07:15:28.778Z,96845.50
2022-12-11T07:17:55.696Z,96840.08
2022-12-11T07:20:22.739Z,96840.84
2022-12-11T07:22:50.220Z,96836.80
2022-12-11T07:25:17.260Z,96829.86
2022-12-11T07:27:44.223Z,96828.02
2022-12-11T07:30:11.948Z,96824.99
2022-12-11T07:32:39.086Z,96824.73
2022-12-11T07:35:06.366Z,96826.16
2022-12-11T07:37:33.189Z,96829.30
2022-12-11T07:40:00.179Z,96823.54
2022-12-11T07:42:27.188Z,96818.39
2022-12-11T07:44:54.166Z,96815.52
2022-12-11T07:47:21.179Z,96805.78
2022-12-11T07:49:48.635Z,96799.10
2022-12-11T07:52:15.581Z,96793.70
2022-12-11T07:54:42.511Z,96787.30
2022-12-11T07:57:13.845Z,96776.98
2022-12-11T07:59:44.097Z,96782.65
2022-12-11T08:02:12.139Z,96782.70
2022-12-11T08:04:39.155Z,96775.25
2022-12-11T08:07:06.264Z,96770.27
2022-12-11T08:09:33.414Z,96757.63
2022-12-11T08:12:00.452Z,96753.29
2022-12-11T08:14:27.381Z,96756.78
2022-12-11T08:16:54.322Z,96750.64
2022-12-11T08:19:21.277Z,96741.58
2022-12-11T08:21:48.216Z,96736.52
2022-12-11T08:24:16.583Z,96736.35
2022-12-11T08:26:44.887Z,96737.14
2022-12-11T08:29:11.834Z,96730.45
2022-12-11T08:31:39.832Z,96728.25
2022-12-11T08:34:06.749Z,96715.71
2022-12-11T08:36:33.790Z,96709.98
2022-12-11T08:39:00.750Z,96696.71
2022-12-11T08:41:29.357Z,96683.02
2022-12-11T08:43:57.747Z,96684.48
2022-12-11T08:46:27.100Z,96681.22
2022-12-11T08:48:54.783Z,96669.09
2022-12-11T08:51:23.348Z,96664.96
2022-12-11T08:53:51.245Z,96649.23
2022-12-11T08:56:20.177Z,96641.39
2022-12-11T08:58:47.435Z,96627.48
2022-12-11T09:01:22.496Z,96619.04
2022-12-11T09:03:50.075Z,96617.15
2022-12-11T09:06:19.188Z,96614.48
2022-12-11T09:08:52.181Z,96610.23
2022-12-11T09:11:25.536Z,96609.21
2022-12-11T09:13:52.800Z,96598.48
2022-12-11T09:16:21.523Z,96588.02
2022-12-11T09:18:49.740Z,96585.93
2022-12-11T09:21:18.385Z,96575.56
2022-12-11T09:23:45.334Z,96570.96
2022-12-11T09:26:14.610Z,96565.48
2022-12-11T09:28:46.212Z,96557.81
2022-12-11T09:31:16.854Z,96548.61
2022-12-11T09:33:44.114Z,96546.98
2022-12-11T09:36:11.937Z,96543.20
2022-12-11T09:38:38.874Z,96533.22
2022-12-11T09:41:21.732Z,96531.67
2022-12-11T09:44:13.526Z,96525.71
2022-12-11T09:46:40.468Z,96513.66
2022-12-11T09:49:21.699Z,96504.16
2022-12-11T09:52:01.127Z,96497.26
2022-12-11T09:54:28.377Z,96494.08
2022-12-11T09:56:58.965Z,96487.46
2022-12-11T10:00:02.716Z,96481.10
2022-12-11T10:02:59.919Z,96474.86
2022-12-11T10:05:44.423Z,96468.02
2022-12-11T10:08:17.417Z,96465.30
2022-12-11T10:10:51.680Z,96462.77
2022-12-11T10:13:41.504Z,96460.54
2022-12-11T10:16:36.687Z,96445.30
2022-12-11T10:19:03.864Z,96446.33
2022-12-11T10:21:40.186Z,96442.23
2022-12-11T10:24:33.769Z,96442.46
2022-12-11T10:27:20.024Z,96430.91
2022-12-11T10:29:47.461Z,96424.23
2022-12-11T10:32:25.769Z,96418.48
2022-12-11T10:34:58.190Z,96414.69
2022-12-11T10:37:25.101Z,96409.92
2022-12-11T10:39:51.903Z,96403.66
2022-12-11T10:42:20.519Z,96395.70
2022-12-11T10:45:01.648Z,96395.80
2022-12-11T10:47:28.838Z,96388.90
2022-12-11T10:49:58.522Z,96380.48
2022-12-11T10:52:33.848Z,96376.67
2022-12-11T10:55:06.909Z,96368.33
2022-12-11T10:57:38.012Z,96363.52
2022-12-11T11:00:07.546Z,96351.20
2022-12-11T11:02:38.598Z,96350.13
2022-12-11T11:05:36.639Z,96346.30
2022-12-11T11:08:19.290Z,96340.86
2022-12-11T11:10:53.498Z,96342.30
2022-12-11T11:13:22.714Z,96338.30
2022-12-11T11:15:51.006Z,96336.90
2022-12-11T11:18:25.602Z,96327.05
2022-12-11T11:20:52.846Z,96324.46
2022-12-11T11:23:21.659Z,96328.08
2022-12-11T11:25:59.524Z,96327.52
2022-12-11T11:28:37.205Z,96328.20
2022-12-11T11:31:14.604Z,96323.69
2022-12-11T11:33:55.200Z,96322.51
2022-12-11T11:36:29.845Z,96323.06
2022-12-11T11:39:02.964Z,96319.27
2022-12-11T11:41:35.750Z,96320.82
2022-12-11T11:44:05.053Z,96309.59
2022-12-11T11:46:59.423Z,96314.16
2022-12-11T11:49:32.638Z,96308.72
2022-12-11T11:52:08.937Z,96310.55
2022-12-11T11:54:41.122Z,96309.32
2022-12-11T11:57:17.898Z,96305.27
2022-12-11T11:59:47.704Z,96295.46
2022-12-11T12:02:16.654Z,96286.56
2022-12-11T12:04:45.020Z,96286.54
2022-12-11T12:07:38.999Z,96284.75
2022-12-11T12:10:15.876Z,96282.19
2022-12-11T12:13:14.319Z,96285.81
2022-12-11T12:15:58.478Z,96278.75
2022-12-11T12:18:41.042Z,96279.48
2022-12-11T12:21:39.102Z,96280.16
2022-12-11T12:24:25.222Z,96284.95
2022-12-11T12:27:51.134Z,96283.45
2022-12-11T12:30:13.315Z,96285.79
2022-12-11T12:33:04.899Z,96281.10
2022-12-11T12:35:39.036Z,96295.45
2022-12-11T12:38:22.634Z,96299.56
2022-12-11T12:41:47.913Z,96302.91
2022-12-11T12:44:19.180Z,96307.22
2022-12-11T12:47:15.106Z,96304.56
2022-12-11T12:49:43.588Z,96307.82
2022-12-11T12:52:18.329Z,96309.27
2022-12-11T12:55:06.937Z,96310.02
2022-12-11T12:57:34.017Z,96307.21
2022-12-11T13:00:00.941Z,96310.42
2022-12-11T13:02:28.507Z,96314.89
2022-12-11T13:04:58.028Z,96312.19
2022-12-11T13:07:32.367Z,96313.40
2022-12-11T13:10:24.512Z,96315.13
2022-12-11T13:12:51.510Z,96315.36
2022-12-11T13:15:30.868Z,96313.84
2022-12-11T13:18:04.453Z,96313.96
2022-12-11T13:20:32.453Z,96312.94
2022-12-11T13:23:20.693Z,96322.13
2022-12-11T13:25:49.163Z,96332.20
2022-12-11T13:28:28.075Z,96329.44
2022-12-11T13:31:04.025Z,96328.55
2022-12-11T13:33:31.082Z,96327.31
2022-12-11T13:36:15.913Z,96329.75
2022-12-11T13:39:02.460Z,96329.05
2022-12-11T13:41:29.635Z,96322.89
2022-12-11T13:43:56.541Z,96321.86
2022-12-11T13:46:26.567Z,96321.37
2022-12-11T13:49:01.118Z,96323.44
2022-12-11T13:51:32.220Z,96324.77
2022-12-11T13:54:07.344Z,96326.58
2022-12-11T13:56:34.727Z,96328.07
2022-12-11T13:59:01.766Z,96324.53
2022-12-11T14:01:31.055Z,96330.56
2022-12-11T14:04:09.264Z,96339.65
2022-12-11T14:06:36.343Z,96349.06
2022-12-11T14:09:04.213Z,96357.38
2022-12-11T14:11:36.022Z,96358.14
2022-12-11T14:14:05.261Z,96363.55
2022-12-11T14:16:32.584Z,96365.73
2022-12-11T14:19:05.587Z,96363.69
2022-12-11T14:21:32.833Z,96368.65
2022-12-11T14:24:01.312Z,96366.79
2022-12-11T14:26:28.978Z,96360.88
2022-12-11T14:28:55.914Z,96365.80
2022-12-11T14:31:37.800Z,96364.69
2022-12-11T14:34:14.798Z,96371.86
2022-12-11T14:36:42.455Z,96372.84
2022-12-11T14:39:46.464Z,96382.91
2022-12-11T14:42:20.497Z,96387.39
2022-12-11T14:44:50.197Z,96388.01
2022-12-11T14:47:20.512Z,96393.02
2022-12-11T14:49:58.991Z,96398.77
2022-12-11T14:52:30.368Z,96399.84
2022-12-11T14:55:02.028Z,96404.80
2022-12-11T14:57:29.141Z,96410.36
2022-12-11T14:59:56.119Z,96409.48
2022-12-11T15:02:25.996Z,96415.61
2022-12-11T15:12:45.356Z,96420.29
2022-12-11T15:15:15.577Z,96426.25
2022-12-11T15:17:42.693Z,96423.11
2022-12-11T15:20:11.746Z,96439.23
2022-12-11T15:22:42.250Z,96445.30
2022-12-11T15:25:20.914Z,96446.56
2022-12-11T15:27:51.203Z,96443.05
2022-12-11T15:30:18.110Z,96439.65
2022-12-11T15:32:45.031Z,96429.35
2022-12-11T15:35:26.360Z,96431.23
2022-12-11T15:37:54.636Z,96442.16
2022-12-11T15:40:21.555Z,96454.52
2022-12-11T15:42:49.300Z,96451.63
2022-12-11T15:45:23.959Z,96453.13
2022-12-11T15:47:51.221Z,96463.22
2022-12-11T15:50:23.429Z,96478.04
2022-12-11T15:52:51.575Z,96492.84
2022-12-11T15:55:19.027Z,96490.55
2022-12-11T15:57:57.031Z,96493.27
2022-12-11T16:00:24.203Z,96508.42
2022-12-11T16:02:52.172Z,96524.36
2022-12-11T16:05:20.033Z,96523.23
2022-12-11T16:07:48.279Z,96529.80
2022-12-11T16:10:18.780Z,96532.93
2022-12-11T16:12:46.008Z,96542.05
2022-12-11T16:15:18.749Z,96542.27
2022-12-11T16:17:50.195Z,96555.35
2022-12-11T16:20:17.503Z,96551.10
2022-12-11T16:22:45.003Z,96550.88
2022-12-11T16:25:12.190Z,96564.70
2022-12-11T16:27:40.566Z,96572.70
2022-12-11T16:30:08.199Z,96582.61
2022-12-11T16:32:35.084Z,96588.05
2022-12-11T16:35:02.083Z,96595.57
2022-12-11T16:37:28.987Z,96613.14
2022-12-11T16:39:55.983Z,96616.00
2022-12-11T16:42:23.023Z,96622.27
2022-12-11T16:44:50.103Z,96627.40
2022-12-11T16:47:17.112Z,96629.29
2022-12-11T16:49:44.120Z,96641.27
2022-12-11T16:52:18.971Z,96649.26
2022-12-11T16:54:49.033Z,96645.96
2022-12-11T16:57:17.437Z,96637.63
2022-12-11T16:59:44.566Z,96638.52
2022-12-11T17:02:11.691Z,96637.92
2022-12-11T17:04:39.159Z,96634.40
2022-12-11T17:07:06.291Z,96631.66
2022-12-11T17:09:33.191Z,96642.10
2022-12-11T17:12:00.195Z,96645.38
2022-12-11T17:14:27.214Z,96655.12
2022-12-11T17:16:54.115Z,96655.91
2022-12-11T17:19:22.141Z,96663.52
2022-12-11T17:21:51.698Z,96653.06
2022-12-11T17:24:19.517Z,96651.03
2022-12-11T17:26:46.658Z,96651.90
2022-12-11T17:29:13.721Z,96657.81
2022-12-11T17:31:40.957Z,96674.58
2022-12-11T17:34:08.040Z,96680.33
2022-12-11T17:36:35.274Z,96683.77
2022-12-11T17:39:03.518Z,96691.52
2022-12-11T17:41:30.578Z,96704.41
2022-12-11T17:43:57.526Z,96705.90
2022-12-11T17:46:24.482Z,96706.77
2022-12-11T17:48:51.531Z,96706.86
2022-12-11T17:51:24.162Z,96719.41
2022-12-11T17:53:52.363Z,96729.69
2022-12-11T17:56:19.423Z,96725.30
2022-12-11T17:58:46.406Z,96715.99
2022-12-11T18:01:13.545Z,96719.77
2022-12-11T18:03:41.811Z,96722.92
2022-12-11T18:06:11.000Z,96737.81
2022-12-11T18:08:38.156Z,96735.83
2022-12-11T18:11:23.659Z,96729.45
2022-12-11T18:13:51.359Z,96734.27
2022-12-11T18:16:25.452Z,96740.63
2022-12-11T18:18:52.883Z,96741.52
2022-12-11T18:21:22.242Z,96760.79
2022-12-11T18:23:50.556Z,96759.60
2022-12-11T18:26:20.742Z,96756.81
2022-12-11T18:28:50.247Z,96764.27
2022-12-11T18:31:17.560Z,96761.88
2022-12-11T18:33:45.081Z,96771.17
2022-12-11T18:36:14.484Z,96776.48
2022-12-11T18:38:42.288Z,96777.10
2022-12-11T18:41:11.114Z,96792.04
2022-12-11T18:43:38.198Z,96801.70
2022-12-11T18:46:09.702Z,96803.66
2022-12-11T18:48:39.734Z,96822.54
2022-12-11T18:51:10.216Z,96825.44
2022-12-11T18:53:39.316Z,96832.03
2022-12-11T18:56:09.824Z,96838.49
2022-12-11T18:58:37.177Z,96842.57
2022-12-11T19:01:26.396Z,96843.87
2022-12-11T19:03:58.816Z,96840.38
2022-12-11T19:06:32.762Z,96841.45
2022-12-11T19:08:59.941Z,96845.12
2022-12-11T19:11:28.315Z,96834.73
2022-12-11T19:13:56.827Z,96826.77
2022-12-11T19:16:26.017Z,96835.33
2022-12-11T19:18:53.166Z,96853.31
2022-12-11T19:21:20.117Z,96839.17
2022-12-11T19:23:47.209Z,96851.64
2022-12-11T19:26:19.196Z,96848.56
2022-12-11T19:28:46.550Z,96860.03
2022-12-11T19:31:16.610Z,96860.62
2022-12-11T19:33:43.824Z,96860.24
2022-12-11T19:36:11.996Z,96872.11
2022-12-11T19:38:41.303Z,96895.84
2022-12-11T19:41:17.058Z,96891.83
2022-12-11T19:43:44.326Z,96905.08
2022-12-11T19:46:11.818Z,96902.26
2022-12-11T19:48:38.903Z,96911.39
2022-12-11T19:51:20.394Z,96902.27
2022-12-11T19:53:48.659Z,96898.61
2022-12-11T19:56:15.938Z,96907.29
2022-12-11T19:58:43.058Z,96905.23
2022-12-11T20:01:10.335Z,96910.11
2022-12-11T20:03:38.101Z,96911.27
2022-12-11T20:06:07.202Z,96914.27
2022-12-11T20:08:49.985Z,96917.11
2022-12-11T20:11:18.642Z,96918.05
2022-12-11T20:13:49.657Z,96905.33
2022-12-11T20:16:17.518Z,96915.83
2022-12-11T20:18:45.653Z,96932.69
2022-12-11T20:21:14.483Z,96944.45
2022-12-11T20:23:41.796Z,96950.65
2022-12-11T20:26:19.970Z,96951.31
2022-12-11T20:28:48.381Z,96951.71
2022-12-11T20:31:20.187Z,96951.52
2022-12-11T20:33:49.297Z,96968.48
2022-12-11T20:36:17.417Z,96960.42
2022-12-11T20:38:44.660Z,96961.34
2022-12-11T20:41:13.141Z,96972.33
2022-12-11T20:43:40.157Z,96982.25
2022-12-11T20:46:09.128Z,96972.34
2022-12-11T20:48:38.827Z,96980.60
2022-12-11T20:51:08.388Z,96981.80
2022-12-11T20:53:35.954Z,96978.30
2022-12-11T20:56:08.842Z,96968.33
2022-12-11T20:58:36.396Z,96977.63
2022-12-11T21:01:03.500Z,96982.27
2022-12-11T21:03:34.506Z,96982.00
2022-12-11T21:06:04.810Z,96984.65
2022-12-11T21:08:31.632Z,96977.89
2022-12-11T21:10:58.504Z,96981.76
2022-12-11T21:13:25.324Z,96988.34
2022-12-11T21:15:56.798Z,96993.34
2022-12-11T21:18:24.041Z,97004.43
2022-12-11T21:20:56.399Z,97006.75
2022-12-11T21:23:23.297Z,96997.59
2022-12-11T21:25:53.581Z,96997.39
2022-12-11T21:28:20.716Z,96991.69
2022-12-11T21:30:47.666Z,96987.78
2022-12-11T21:33:14.800Z,97000.39
2022-12-11T21:35:42.478Z,97008.69
2022-12-11T21:38:10.045Z,97018.08
2022-12-11T21:40:36.988Z,97012.30
2022-12-11T21:43:03.932Z,97016.27
2022-12-11T21:46:00.635Z,97007.81
2022-12-11T21:48:22.809Z,97009.52
2022-12-11T21:50:51.494Z,97012.54
2022-12-11T21:53:18.581Z,96998.40
2022-12-11T21:55:45.554Z,97008.25
2022-12-11T21:58:12.468Z,97016.92
2022-12-11T22:00:39.371Z,97026.91
2022-12-11T22:03:06.318Z,97011.83
2022-12-11T22:05:33.282Z,97003.50
2022-12-11T22:08:00.233Z,96997.42
2022-12-11T22:10:28.219Z,96979.51
2022-12-11T22:12:55.117Z,96979.60
2022-12-11T22:15:22.236Z,96979.77
2022-12-11T22:17:49.416Z,96987.17
2022-12-11T22:20:16.561Z,96992.57
2022-12-11T22:22:43.724Z,97001.36
2022-12-11T22:25:11.005Z,97002.24
2022-12-11T22:27:38.336Z,96987.27
2022-12-11T22:30:06.127Z,96977.86
2022-12-11T22:32:33.023Z,96990.08
2022-12-11T22:35:00.075Z,96992.42
2022-12-11T22:37:27.140Z,96985.13
2022-12-11T22:39:54.112Z,96993.51
2022-12-11T22:42:20.944Z,96992.17
2022-12-11T22:44:47.814Z,96988.09
2022-12-11T22:47:15.878Z,96974.02
2022-12-11T22:49:42.865Z,96963.80
2022-12-11T22:52:10.164Z,96972.36
2022-12-11T22:54:41.273Z,96985.95
2022-12-11T22:57:08.483Z,96987.52
2022-12-11T22:59:36.011Z,96992.17
2022-12-11T23:02:03.181Z,96994.92
2022-12-11T23:04:30.890Z,96990.36
2022-12-11T23:06:58.339Z,96989.93
2022-12-11T23:09:25.491Z,96981.02
2022-12-11T23:11:52.542Z,96982.55
2022-12-11T23:14:19.583Z,96985.41
2022-12-11T23:16:46.666Z,96985.59
2022-12-11T23:19:13.785Z,96995.13
2022-12-11T23:21:40.686Z,96998.85
2022-12-11T23:24:08.305Z,96998.59
2022-12-11T23:26:35.211Z,97002.73
2022-12-11T23:29:02.320Z,97004.83
2022-12-11T23:31:30.472Z,97003.69
2022-12-11T23:33:57.539Z,97003.38
2022-12-11T23:36:24.543Z,97012.58
2022-12-11T23:38:54.816Z,96999.63
2022-12-11T23:41:22.319Z,97004.10
2022-12-11T23:43:49.279Z,97004.08
2022-12-11T23:46:21.708Z,97009.83
2022-12-11T23:48:48.910Z,97029.63
2022-12-11T23:51:17.285Z,97035.48
2022-12-11T23:53:44.584Z,97040.64
2022-12-11T23:56:15.810Z,97038.55
2022-12-11T23:58:42.815Z,97049.11
